OITR

Urmia Airport

Urmia, Iran
TAF OITR 181730Z 1818/1924 28006KT CAVOK BECMG 1918/1920 6000 HZ NSC
Issued Valid From Valid To
Jan-18 @ 17:30 UTC
(3 hours ago)
Jan-18 @ 18:00 UTC
(2 hours ago)
Jan-20 @ 00:00 UTC
(-1 days ago)
Jan-18 @ 18:00 to Jan-19 @ 18:00
TAF OITR 181730Z 1818/1924 28006KT CAVOK
Wind Visibility Clouds Conditions
280° at 6 knots 10,000+ meters
  • No significant clouds
Becoming Jan-19 @ 18:00 to Jan-20 @ 00:00
BECMG 1918/1920 6000 HZ NSC
Wind Visibility Clouds Conditions
280° at 6 knots 6,003 meters
  • No significant clouds
  • Haze
TAF OITR 181730Z 1818/1924 28006KT CAVOK BECMG 1918/1920 6000 HZ NSC
Issued Jan-18 @ 17:30 UTC
(3 hours ago)
Valid From Jan-18 @ 18:00 UTC
(2 hours ago)
Valid To Jan-20 @ 00:00 UTC
(-1 days ago)
Jan-18 @ 18:00 - Jan-19 @ 18:00
Wind Visibility
280° at 6 knots 10,000+ meters
Clouds
  • No significant clouds
Conditions
Becoming Jan-19 @ 18:00 - Jan-20 @ 00:00
Wind Visibility
280° at 6 knots 6,003 meters
Clouds
  • No significant clouds
Conditions
  • Haze